Time;durP1;ratioP1;P1;durP2;ratioP2;P2;SDS_P1;SDS_P2;PMS_P1;PMS_P2;Temp;Humidity;BMP_temperature;BMP_pressure;BME280_temperature;BME280_humidity;BME280_pressure;Samples;Min_cycle;Max_cycle;Signal;HPM_P1;HPM_P2
2023/02/19 00:01:30;;;;;;;28.77;16.80;;;22.00;99.90;;;;;;5025696;28;20527;-54
2023/02/19 00:03:59;;;;;;;26.65;16.40;;;22.00;99.90;;;;;;5025185;28;20026;-54
2023/02/19 00:06:26;;;;;;;30.75;18.73;;;22.00;99.90;;;;;;5018366;28;20441;-54
2023/02/19 00:08:52;;;;;;;27.83;17.25;;;22.00;99.90;;;;;;5031800;28;20025;-54
2023/02/19 00:11:21;;;;;;;27.30;17.63;;;22.00;99.90;;;;;;5031438;28;20032;-54
2023/02/19 00:13:49;;;;;;;31.23;18.63;;;22.00;99.90;;;;;;5031337;28;20156;-53
2023/02/19 00:16:19;;;;;;;29.92;17.92;;;22.00;99.90;;;;;;5031404;28;20021;-53
2023/02/19 00:18:45;;;;;;;28.48;18.98;;;22.00;99.90;;;;;;5021603;28;20129;-53
2023/02/19 00:21:11;;;;;;;29.20;19.58;;;22.00;99.90;;;;;;5011674;28;20030;-53
2023/02/19 00:23:37;;;;;;;32.50;19.42;;;21.90;99.90;;;;;;5021602;28;20029;-54
2023/02/19 00:26:05;;;;;;;32.35;20.98;;;21.90;99.90;;;;;;5029805;28;20033;-53
2023/02/19 00:28:30;;;;;;;32.08;20.65;;;21.90;99.90;;;;;;5019822;28;20022;-53
2023/02/19 00:31:02;;;;;;;31.88;21.05;;;21.90;99.90;;;;;;5031240;28;20471;-53
2023/02/19 00:33:28;;;;;;;32.58;20.73;;;21.90;99.90;;;;;;5023890;28;20025;-52
2023/02/19 00:35:54;;;;;;;32.03;21.48;;;21.90;99.90;;;;;;5012067;28;20104;-54
2023/02/19 00:38:20;;;;;;;31.85;21.58;;;21.90;99.90;;;;;;5015226;28;20046;-53
2023/02/19 00:40:45;;;;;;;32.05;22.60;;;21.90;99.90;;;;;;5027845;28;20041;-53
2023/02/19 00:43:11;;;;;;;37.10;22.40;;;21.90;99.90;;;;;;5021619;28;20021;-54
2023/02/19 00:45:37;;;;;;;35.53;22.77;;;21.90;99.90;;;;;;5021989;28;20048;-54
2023/02/19 00:48:03;;;;;;;35.47;23.70;;;21.80;99.90;;;;;;5015165;28;20041;-53
2023/02/19 00:50:28;;;;;;;40.40;23.88;;;21.90;99.90;;;;;;4997368;28;20037;-54
2023/02/19 00:52:54;;;;;;;38.15;24.92;;;21.80;99.90;;;;;;5017057;28;20447;-54
2023/02/19 00:55:20;;;;;;;36.30;24.17;;;21.80;99.90;;;;;;5007125;28;20026;-53
2023/02/19 00:57:45;;;;;;;41.60;24.67;;;21.80;99.90;;;;;;5031366;28;20014;-54
2023/02/19 01:00:12;;;;;;;41.42;26.25;;;21.80;99.90;;;;;;5035022;28;20080;-56
2023/02/19 01:02:38;;;;;;;39.13;24.60;;;21.80;99.90;;;;;;5034452;28;20025;-55
2023/02/19 01:05:04;;;;;;;37.10;24.13;;;21.80;99.90;;;;;;5034420;28;20030;-56
2023/02/19 01:07:30;;;;;;;38.83;25.52;;;21.80;99.90;;;;;;5034418;28;20018;-56
2023/02/19 01:09:55;;;;;;;37.38;24.48;;;21.80;99.90;;;;;;5034875;28;20064;-56
2023/02/19 01:12:23;;;;;;;38.33;25.50;;;21.80;99.90;;;;;;5034514;28;20032;-56
2023/02/19 01:14:48;;;;;;;37.58;25.00;;;21.70;99.90;;;;;;5015616;28;20080;-56
2023/02/19 01:17:14;;;;;;;43.45;27.58;;;21.70;99.90;;;;;;5026732;28;20033;-55
2023/02/19 01:19:40;;;;;;;40.70;26.98;;;21.70;99.90;;;;;;5015515;28;20088;-56
2023/02/19 01:22:05;;;;;;;40.92;27.42;;;21.70;99.90;;;;;;5014732;28;20092;-57
2023/02/19 01:24:31;;;;;;;41.45;27.08;;;21.70;99.90;;;;;;5031952;28;20450;-54
2023/02/19 01:26:57;;;;;;;42.30;26.95;;;21.70;99.90;;;;;;5016575;28;20022;-56
2023/02/19 01:29:23;;;;;;;41.40;26.52;;;21.70;99.90;;;;;;5013894;28;20479;-56
2023/02/19 01:31:48;;;;;;;41.33;28.00;;;21.70;99.90;;;;;;5014451;28;20022;-55
2023/02/19 01:34:14;;;;;;;46.45;28.00;;;21.70;99.90;;;;;;5029919;28;20081;-57
2023/02/19 01:36:40;;;;;;;39.75;26.52;;;21.70;99.90;;;;;;5000045;28;20024;-56
2023/02/19 01:39:06;;;;;;;42.50;27.35;;;21.70;99.90;;;;;;5019965;28;20022;-56
2023/02/19 01:41:35;;;;;;;44.58;29.35;;;21.70;99.90;;;;;;5003959;28;20017;-57
2023/02/19 01:44:08;;;;;;;43.25;27.05;;;21.60;99.90;;;;;;5016272;28;20067;-56
2023/02/19 01:46:39;;;;;;;46.53;29.27;;;21.70;99.90;;;;;;5021669;28;20079;-55
2023/02/19 01:49:25;;;;;;;42.35;28.67;;;21.70;99.90;;;;;;5014720;28;20372;-56
2023/02/19 01:52:19;;;;;;;40.35;27.73;;;21.60;99.90;;;;;;5033745;28;20031;-55
2023/02/19 01:54:47;;;;;;;43.30;29.27;;;21.60;99.90;;;;;;5033846;28;20506;-55
2023/02/19 01:57:17;;;;;;;42.15;28.20;;;21.60;99.90;;;;;;5033522;28;20487;-56
2023/02/19 01:59:45;;;;;;;40.70;28.10;;;21.60;99.90;;;;;;5010095;28;20050;-56
2023/02/19 02:02:11;;;;;;;46.22;29.38;;;21.60;99.90;;;;;;4996251;28;20387;-56
2023/02/19 02:04:37;;;;;;;43.70;29.13;;;21.60;99.90;;;;;;5018297;28;20029;-56
2023/02/19 02:10:18;;;;;;;42.95;27.63;;;21.60;99.90;;;;;;5033457;28;20025;-56
2023/02/19 02:12:35;;;;;;;39.40;26.73;;;21.50;99.90;;;;;;5032388;28;20084;-55
2023/02/19 02:15:01;;;;;;;43.50;27.63;;;21.50;99.90;;;;;;5017127;28;20495;-55
2023/02/19 02:17:56;;;;;;;43.75;28.48;;;21.50;99.90;;;;;;5017401;28;20090;-54
2023/02/19 02:20:49;;;;;;;45.35;28.67;;;21.50;99.90;;;;;;4987479;28;20488;-54
2023/02/19 02:23:40;;;;;;;40.05;27.13;;;21.50;99.90;;;;;;5018051;28;20097;-53
2023/02/19 02:26:41;;;;;;;43.03;28.67;;;21.50;99.90;;;;;;5020870;28;20026;-53
2023/02/19 02:29:43;;;;;;;49.17;27.50;;;21.50;99.90;;;;;;5017184;28;20065;-53
2023/02/19 02:32:18;;;;;;;43.05;27.48;;;21.50;99.90;;;;;;5002554;28;20033;-53
2023/02/19 02:35:04;;;;;;;41.28;26.70;;;21.50;99.90;;;;;;5022176;28;20026;-53
2023/02/19 02:37:35;;;;;;;39.35;26.08;;;21.50;99.90;;;;;;5023092;28;20549;-53
2023/02/19 02:40:03;;;;;;;43.47;27.27;;;21.50;99.90;;;;;;5012458;28;20033;-55
2023/02/19 02:42:29;;;;;;;43.58;26.55;;;21.50;99.90;;;;;;5021138;28;20026;-54
2023/02/19 02:47:54;;;;;;;40.55;26.60;;;21.50;99.90;;;;;;5018667;28;20084;-54
2023/02/19 02:50:36;;;;;;;44.00;27.60;;;21.50;99.90;;;;;;5003637;28;20452;-53
2023/02/19 02:55:53;;;;;;;39.80;25.27;;;21.50;99.90;;;;;;5022706;28;20542;-54
2023/02/19 02:58:21;;;;;;;39.80;25.05;;;21.50;99.90;;;;;;5017963;28;20065;-54
2023/02/19 03:03:44;;;;;;;41.13;25.45;;;21.50;99.90;;;;;;5017619;28;20037;-55
2023/02/19 03:06:14;;;;;;;36.60;24.95;;;21.50;99.90;;;;;;5028502;28;20132;-55
2023/02/19 03:08:43;;;;;;;38.35;25.33;;;21.50;99.90;;;;;;5005991;28;20049;-56
2023/02/19 03:19:33;;;;;;;39.58;24.70;;;21.50;99.90;;;;;;5018433;28;19966;-57
2023/02/19 03:22:15;;;;;;;36.28;22.17;;;21.50;99.90;;;;;;5004005;28;20121;-56
2023/02/19 03:27:50;;;;;;;35.83;23.52;;;21.50;99.90;;;;;;5016196;28;20079;-54
2023/02/19 03:30:21;;;;;;;33.25;21.98;;;21.40;99.90;;;;;;5022965;28;20032;-55
2023/02/19 03:32:52;;;;;;;36.40;23.30;;;21.40;99.90;;;;;;5020465;28;20105;-54
2023/02/19 03:35:22;;;;;;;32.67;21.65;;;21.40;99.90;;;;;;5021784;28;20030;-54
2023/02/19 03:38:03;;;;;;;34.58;23.30;;;21.40;99.90;;;;;;5024953;28;20104;-54
2023/02/19 03:40:33;;;;;;;32.65;22.48;;;21.40;99.90;;;;;;5017573;28;20491;-56
2023/02/19 03:43:22;;;;;;;33.47;22.77;;;21.40;99.90;;;;;;5017082;28;20383;-56
2023/02/19 03:46:00;;;;;;;34.22;22.08;;;21.40;99.90;;;;;;5005217;28;20038;-55
2023/02/19 03:48:57;;;;;;;35.15;22.63;;;21.40;99.90;;;;;;5020803;28;20108;-54
2023/02/19 03:51:26;;;;;;;;;;;21.40;99.90;;;;;;5019263;28;20493;-56
2023/02/19 03:54:27;;;;;;;33.25;21.33;;;21.40;99.90;;;;;;5013310;28;19913;-57
2023/02/19 03:57:24;;;;;;;35.53;21.13;;;21.40;99.90;;;;;;5011966;28;20026;-58
2023/02/19 04:00:00;;;;;;;;;;;21.40;99.90;;;;;;5036552;23;20128;-49
2023/02/19 04:02:30;;;;;;;30.40;19.70;;;21.40;99.90;;;;;;5019326;28;19915;-49
2023/02/19 04:05:10;;;;;;;31.75;20.48;;;21.40;99.90;;;;;;5017917;28;20081;-50
2023/02/19 04:07:41;;;;;;;31.60;20.63;;;21.40;99.90;;;;;;5011826;28;20491;-48
2023/02/19 04:10:08;;;;;;;27.95;18.50;;;21.40;99.90;;;;;;5028978;28;20022;-49
2023/02/19 04:12:38;;;;;;;31.48;19.75;;;21.30;99.90;;;;;;5021662;28;20164;-49
2023/02/19 04:15:10;;;;;;;31.27;18.83;;;21.30;99.90;;;;;;5035991;28;20390;-50
2023/02/19 04:17:40;;;;;;;28.98;19.33;;;21.30;99.90;;;;;;5033384;28;20017;-49
2023/02/19 04:20:09;;;;;;;28.85;19.05;;;21.30;99.90;;;;;;5025187;28;20109;-49
2023/02/19 04:22:37;;;;;;;31.58;18.88;;;21.30;99.90;;;;;;5035549;28;20021;-49
2023/02/19 04:25:03;;;;;;;31.45;18.63;;;21.30;99.90;;;;;;5035785;28;20100;-49
2023/02/19 04:27:29;;;;;;;27.73;18.20;;;21.30;99.90;;;;;;5034995;28;20026;-49
2023/02/19 04:29:55;;;;;;;31.85;18.67;;;21.30;99.90;;;;;;5028236;28;20032;-49
2023/02/19 04:32:21;;;;;;;27.98;18.80;;;21.30;99.90;;;;;;5011041;28;20024;-49
2023/02/19 04:34:47;;;;;;;27.40;19.00;;;21.30;99.90;;;;;;5022614;28;20096;-49
2023/02/19 04:37:13;;;;;;;26.90;17.20;;;21.30;99.90;;;;;;5035230;28;20026;-49
2023/02/19 04:39:38;;;;;;;27.67;17.63;;;21.30;99.90;;;;;;5035062;28;20391;-49
2023/02/19 04:42:04;;;;;;;28.48;16.83;;;21.30;99.90;;;;;;5023477;28;20134;-50
2023/02/19 04:44:30;;;;;;;28.00;17.77;;;21.30;99.90;;;;;;5032508;28;20024;-49
2023/02/19 04:46:56;;;;;;;26.10;16.63;;;21.30;99.90;;;;;;5017500;28;20021;-49
2023/02/19 04:49:21;;;;;;;25.48;16.95;;;21.30;99.90;;;;;;5034701;28;20100;-49
2023/02/19 04:51:47;;;;;;;29.40;18.25;;;21.20;99.90;;;;;;5035178;28;20028;-48
2023/02/19 04:54:13;;;;;;;29.00;17.27;;;21.30;99.90;;;;;;5035088;28;20414;-49
2023/02/19 04:56:39;;;;;;;24.48;16.02;;;21.20;99.90;;;;;;5034831;28;20028;-49
2023/02/19 05:01:40;;;;;;;28.42;17.65;;;21.20;99.90;;;;;;5034177;28;20053;-55
2023/02/19 05:04:06;;;;;;;22.67;15.75;;;21.20;99.90;;;;;;5020853;28;20084;-55
2023/02/19 05:06:32;;;;;;;23.55;15.43;;;21.20;99.90;;;;;;5015079;28;20460;-57
2023/02/19 05:08:58;;;;;;;23.38;15.85;;;21.20;99.90;;;;;;5011179;28;20383;-55
2023/02/19 05:11:23;;;;;;;25.48;17.27;;;21.20;99.90;;;;;;5034717;28;20017;-55
2023/02/19 05:13:49;;;;;;;26.65;17.45;;;21.20;99.90;;;;;;5034472;28;20388;-56
2023/02/19 05:16:16;;;;;;;25.98;15.23;;;21.20;99.90;;;;;;5019660;28;20025;-57
2023/02/19 05:18:44;;;;;;;24.60;15.27;;;21.20;99.90;;;;;;5016736;28;20021;-59
2023/02/19 05:21:10;;;;;;;23.38;15.40;;;21.20;99.90;;;;;;5034577;28;20456;-54
2023/02/19 05:23:36;;;;;;;24.17;14.18;;;21.20;99.90;;;;;;5034543;28;20021;-54
2023/02/19 05:26:25;;;;;;;24.40;15.63;;;21.10;99.90;;;;;;5016495;28;20018;-55
2023/02/19 05:28:52;;;;;;;24.73;15.82;;;21.10;99.90;;;;;;5033998;28;20013;-54
2023/02/19 05:31:18;;;;;;;27.83;14.33;;;21.10;99.90;;;;;;5029356;28;20401;-55
2023/02/19 05:33:48;;;;;;;27.73;16.17;;;21.10;99.90;;;;;;5026236;28;20171;-54
2023/02/19 05:36:14;;;;;;;20.33;14.68;;;21.10;99.90;;;;;;5029808;28;20036;-56
2023/02/19 05:38:41;;;;;;;24.70;16.05;;;21.10;99.90;;;;;;5025468;28;20017;-56
2023/02/19 05:41:14;;;;;;;22.52;14.75;;;21.10;99.90;;;;;;5016341;28;20034;-57
2023/02/19 05:43:43;;;;;;;21.23;14.90;;;21.10;99.90;;;;;;5023771;28;20030;-56
2023/02/19 05:46:10;;;;;;;23.13;15.07;;;21.10;99.90;;;;;;5031782;28;20049;-57
2023/02/19 05:48:36;;;;;;;22.13;14.57;;;21.10;99.90;;;;;;5016426;28;20360;-57
2023/02/19 05:51:07;;;;;;;22.13;15.05;;;21.10;99.90;;;;;;5031125;28;20036;-57
2023/02/19 05:53:33;;;;;;;21.63;14.00;;;21.00;99.90;;;;;;5014177;28;20416;-58
2023/02/19 05:55:59;;;;;;;21.63;14.88;;;21.00;99.90;;;;;;4996868;28;20025;-57
2023/02/19 05:58:25;;;;;;;22.48;13.93;;;21.00;99.90;;;;;;5016094;28;20095;-58
2023/02/19 06:00:51;;;;;;;22.90;14.63;;;21.00;99.90;;;;;;5015760;28;20107;-57
2023/02/19 06:03:17;;;;;;;22.15;14.52;;;21.00;99.90;;;;;;5015954;28;20017;-58
2023/02/19 06:05:43;;;;;;;21.23;13.30;;;21.00;99.90;;;;;;5033442;28;20361;-57
2023/02/19 06:08:13;;;;;;;21.23;14.20;;;21.00;99.90;;;;;;5015832;28;20032;-57
2023/02/19 06:10:40;;;;;;;24.15;14.68;;;21.00;99.90;;;;;;5033706;28;20029;-58
2023/02/19 06:13:07;;;;;;;22.30;14.60;;;21.00;99.90;;;;;;5033267;28;20021;-56
2023/02/19 06:15:33;;;;;;;24.20;13.27;;;21.00;99.90;;;;;;5015693;28;20025;-55
2023/02/19 06:18:00;;;;;;;19.52;13.18;;;21.00;99.90;;;;;;5014787;28;20034;-54
2023/02/19 06:20:26;;;;;;;21.23;13.25;;;21.00;99.90;;;;;;5013396;28;20071;-56
2023/02/19 06:22:51;;;;;;;20.55;13.15;;;21.00;99.90;;;;;;5013656;28;20503;-55
2023/02/19 06:25:18;;;;;;;22.23;14.52;;;21.00;99.90;;;;;;5013580;28;20116;-56
2023/02/19 06:27:44;;;;;;;22.90;13.02;;;20.90;99.90;;;;;;5013401;28;20018;-54
2023/02/19 06:30:10;;;;;;;20.95;13.13;;;20.90;99.90;;;;;;5005079;28;20384;-56
2023/02/19 06:32:36;;;;;;;21.70;13.27;;;20.90;99.90;;;;;;5015153;28;20026;-57
2023/02/19 06:35:02;;;;;;;19.38;13.27;;;20.90;99.90;;;;;;5005795;28;20036;-56
2023/02/19 06:37:28;;;;;;;19.27;12.65;;;20.90;99.90;;;;;;5027155;28;20464;-56
2023/02/19 06:39:54;;;;;;;21.10;12.85;;;20.90;99.90;;;;;;5032710;28;20040;-56
2023/02/19 06:42:19;;;;;;;21.10;13.13;;;20.90;99.90;;;;;;5032897;28;20471;-58
2023/02/19 06:44:45;;;;;;;22.05;13.60;;;20.90;99.90;;;;;;5032661;28;20032;-56
2023/02/19 06:47:11;;;;;;;19.52;13.05;;;20.90;99.90;;;;;;5020710;28;20030;-56
2023/02/19 06:49:39;;;;;;;21.90;13.35;;;20.90;99.90;;;;;;5014094;28;20531;-57
2023/02/19 06:52:05;;;;;;;21.42;13.95;;;20.90;99.90;;;;;;5032723;28;20033;-56
2023/02/19 06:54:32;;;;;;;23.08;15.95;;;20.90;99.90;;;;;;5032462;28;20026;-56
2023/02/19 06:56:58;;;;;;;22.13;13.18;;;20.90;99.90;;;;;;5022812;28;20140;-55
2023/02/19 06:59:24;;;;;;;19.55;13.50;;;20.80;99.90;;;;;;5011574;28;20033;-55
2023/02/19 07:01:50;;;;;;;19.10;12.57;;;20.80;99.90;;;;;;5032581;28;20021;-55
2023/02/19 07:04:16;;;;;;;20.35;13.13;;;20.80;99.90;;;;;;5018739;28;20144;-55
2023/02/19 07:06:42;;;;;;;19.25;13.55;;;20.80;99.90;;;;;;5005589;28;20164;-54
2023/02/19 07:09:09;;;;;;;22.45;12.95;;;20.80;99.90;;;;;;5008216;28;20030;-54
2023/02/19 07:11:37;;;;;;;17.85;12.90;;;20.80;99.90;;;;;;5022159;28;20025;-55
2023/02/19 07:14:06;;;;;;;18.50;12.70;;;20.80;99.90;;;;;;5032278;28;20051;-55
2023/02/19 07:16:33;;;;;;;18.25;12.23;;;20.80;99.90;;;;;;5032389;28;20025;-55
2023/02/19 07:18:59;;;;;;;19.35;13.27;;;20.80;99.90;;;;;;5031743;28;20471;-53
2023/02/19 07:21:26;;;;;;;19.50;11.57;;;20.80;99.90;;;;;;5014483;28;20025;-55
2023/02/19 07:23:52;;;;;;;20.13;11.93;;;20.80;99.90;;;;;;5017025;28;20384;-55
2023/02/19 07:26:19;;;;;;;19.55;12.25;;;20.80;99.90;;;;;;5032239;28;20026;-56
2023/02/19 07:28:47;;;;;;;17.98;12.77;;;20.80;99.90;;;;;;5032388;28;20105;-54
2023/02/19 07:31:14;;;;;;;;;;;20.80;99.90;;;;;;4996197;28;20029;-55
2023/02/19 07:33:43;;;;;;;20.20;13.03;;;20.80;99.90;;;;;;5024948;28;19905;-57
2023/02/19 07:36:09;;;;;;;16.83;10.88;;;20.80;99.90;;;;;;5031672;28;20061;-56
2023/02/19 07:38:35;;;;;;;16.35;11.15;;;20.70;99.90;;;;;;5032012;28;20502;-55
2023/02/19 07:41:03;;;;;;;17.10;11.40;;;20.80;99.90;;;;;;5030055;28;20037;-54
2023/02/19 07:43:32;;;;;;;17.00;11.95;;;20.80;99.90;;;;;;5012106;28;20057;-53
2023/02/19 07:46:01;;;;;;;18.20;11.65;;;20.80;99.90;;;;;;5026900;28;20069;-54
2023/02/19 07:48:26;;;;;;;18.23;10.57;;;20.70;99.90;;;;;;5031746;28;20025;-53
2023/02/19 07:50:57;;;;;;;20.20;11.65;;;20.70;99.90;;;;;;5030241;28;20032;-55
2023/02/19 07:53:25;;;;;;;20.35;13.07;;;20.70;99.90;;;;;;5003102;28;20113;-55
2023/02/19 07:55:51;;;;;;;18.75;11.77;;;20.70;99.90;;;;;;5031086;28;20063;-53
2023/02/19 07:58:17;;;;;;;16.35;11.10;;;20.70;99.90;;;;;;5019468;28;20032;-54
2023/02/19 08:00:43;;;;;;;19.25;11.60;;;20.70;99.90;;;;;;5031768;28;20053;-55
2023/02/19 08:03:09;;;;;;;18.02;11.95;;;20.70;99.90;;;;;;5025665;28;20030;-54
2023/02/19 08:05:40;;;;;;;22.25;12.25;;;20.70;99.90;;;;;;5011935;28;20080;-54
2023/02/19 08:08:07;;;;;;;15.98;11.00;;;20.70;99.90;;;;;;5017001;28;20022;-55
2023/02/19 08:13:18;;;;;;;14.90;10.95;;;20.70;99.90;;;;;;5020086;28;20036;-56
2023/02/19 08:15:45;;;;;;;15.68;11.18;;;20.70;99.90;;;;;;5018746;28;20018;-55
2023/02/19 08:18:12;;;;;;;19.90;13.32;;;20.70;99.90;;;;;;5012158;28;20495;-55
2023/02/19 08:20:37;;;;;;;19.80;12.27;;;20.80;99.90;;;;;;5024943;28;20069;-56
2023/02/19 08:23:04;;;;;;;16.00;11.45;;;20.70;99.90;;;;;;5013294;28;20403;-55
2023/02/19 08:25:29;;;;;;;19.25;12.02;;;20.80;99.90;;;;;;5011613;28;20499;-56
2023/02/19 08:27:55;;;;;;;18.35;11.43;;;20.80;99.90;;;;;;5026279;28;20018;-57
2023/02/19 08:30:21;;;;;;;18.58;12.23;;;20.80;99.90;;;;;;5011706;28;20499;-57
2023/02/19 08:32:47;;;;;;;17.35;11.98;;;20.80;99.90;;;;;;5011849;28;20431;-57
2023/02/19 08:35:13;;;;;;;16.52;11.32;;;20.80;99.90;;;;;;4993819;28;20030;-56
2023/02/19 08:37:38;;;;;;;18.50;11.27;;;20.80;99.90;;;;;;5027115;28;20029;-55
2023/02/19 08:40:04;;;;;;;20.80;11.65;;;20.80;99.90;;;;;;5031466;28;20092;-55
2023/02/19 08:42:30;;;;;;;16.80;11.40;;;20.80;99.90;;;;;;5031082;28;20021;-56
2023/02/19 08:44:56;;;;;;;19.60;11.93;;;20.80;99.90;;;;;;5031195;28;20025;-57
2023/02/19 08:47:22;;;;;;;16.15;10.95;;;20.80;99.90;;;;;;5031344;28;20026;-56
2023/02/19 08:49:47;;;;;;;15.82;11.10;;;20.90;99.90;;;;;;5025463;28;20022;-58
2023/02/19 08:52:13;;;;;;;17.35;11.32;;;20.90;99.90;;;;;;5023640;28;20069;-57
2023/02/19 08:54:39;;;;;;;18.27;11.23;;;20.90;99.90;;;;;;5009482;28;20483;-55
2023/02/19 08:57:04;;;;;;;17.52;11.02;;;20.90;99.90;;;;;;5022518;28;20442;-56
2023/02/19 08:59:31;;;;;;;16.83;11.38;;;20.90;99.90;;;;;;5034657;28;20033;-55
2023/02/19 09:02:00;;;;;;;17.48;11.40;;;20.90;99.90;;;;;;5034976;28;20029;-54
2023/02/19 09:04:26;;;;;;;16.95;11.15;;;20.90;99.90;;;;;;5034621;28;20029;-55
2023/02/19 09:06:51;;;;;;;19.42;11.00;;;21.00;99.90;;;;;;5007779;28;20017;-55
2023/02/19 09:09:17;;;;;;;16.65;11.90;;;21.00;99.90;;;;;;5014842;28;20057;-56
2023/02/19 09:11:43;;;;;;;18.73;11.05;;;21.00;99.90;;;;;;5005239;28;20509;-56
2023/02/19 09:14:09;;;;;;;16.30;10.48;;;21.00;99.90;;;;;;5034524;28;20414;-55
2023/02/19 09:16:35;;;;;;;19.77;11.00;;;21.00;99.90;;;;;;5034543;28;20364;-54
2023/02/19 09:19:05;;;;;;;16.40;10.75;;;21.00;99.90;;;;;;5034454;28;20375;-56
2023/02/19 09:21:30;;;;;;;17.88;10.98;;;21.00;99.90;;;;;;5013498;28;20030;-58
2023/02/19 09:23:56;;;;;;;17.65;11.77;;;21.10;99.90;;;;;;5026730;28;20080;-56
2023/02/19 09:26:23;;;;;;;19.73;10.80;;;21.10;99.90;;;;;;5015919;28;20032;-55
2023/02/19 09:28:49;;;;;;;15.65;11.38;;;21.10;99.90;;;;;;5025290;28;20017;-55
2023/02/19 09:31:16;;;;;;;28.15;10.80;;;21.10;99.90;;;;;;5034173;28;20044;-55
2023/02/19 09:33:45;;;;;;;19.05;10.90;;;21.10;99.90;;;;;;5034371;28;20426;-55
2023/02/19 09:36:13;;;;;;;15.82;11.15;;;21.10;99.90;;;;;;5016237;28;20064;-57
2023/02/19 09:38:39;;;;;;;16.95;11.25;;;21.10;99.90;;;;;;5034760;28;20025;-56
2023/02/19 09:41:30;;;;;;;14.73;10.48;;;21.10;99.90;;;;;;5034130;28;20034;-56
2023/02/19 09:44:01;;;;;;;17.63;10.40;;;21.20;99.90;;;;;;5034206;28;20109;-55
2023/02/19 09:46:31;;;;;;;16.90;10.43;;;21.20;99.90;;;;;;5016455;28;20021;-55
2023/02/19 09:49:20;;;;;;;15.13;10.43;;;21.20;99.90;;;;;;5034094;28;20052;-54
2023/02/19 09:51:55;;;;;;;18.33;11.13;;;21.20;99.90;;;;;;5016142;28;20070;-54
2023/02/19 09:54:24;;;;;;;15.48;10.10;;;21.20;99.90;;;;;;5033270;28;20075;-55
2023/02/19 09:56:51;;;;;;;14.88;10.32;;;21.30;99.90;;;;;;5014288;28;20018;-54
2023/02/19 09:59:22;;;;;;;;;;;21.30;99.90;;;;;;5029038;28;20040;-53
2023/02/19 10:02:11;;;;;;;17.90;10.55;;;21.30;99.90;;;;;;5033689;28;20382;-55
2023/02/19 10:04:40;;;;;;;15.65;9.85;;;21.30;99.90;;;;;;5022404;28;20483;-58
2023/02/19 10:07:20;;;;;;;14.88;9.60;;;21.40;99.90;;;;;;5016439;28;20021;-57
2023/02/19 10:09:59;;;;;;;14.57;10.48;;;21.40;99.90;;;;;;5028116;28;20018;-55
2023/02/19 10:12:31;;;;;;;15.15;10.25;;;21.40;99.90;;;;;;5026697;28;20033;-57
2023/02/19 10:15:06;;;;;;;15.45;10.38;;;21.40;99.90;;;;;;5028222;28;20044;-57
2023/02/19 10:17:33;;;;;;;14.40;10.13;;;21.40;99.90;;;;;;5013785;28;20026;-58
2023/02/19 10:20:02;;;;;;;16.20;10.23;;;21.40;99.90;;;;;;5013398;28;20077;-58
2023/02/19 10:22:30;;;;;;;13.60;9.63;;;21.50;99.90;;;;;;5025712;28;20033;-59
2023/02/19 10:24:56;;;;;;;14.50;9.35;;;21.50;99.90;;;;;;5033025;28;20019;-58
2023/02/19 10:27:28;;;;;;;16.35;9.85;;;21.50;99.90;;;;;;5033264;28;20097;-57
2023/02/19 10:29:54;;;;;;;12.95;8.82;;;21.50;99.90;;;;;;5028162;28;20018;-58
2023/02/19 10:32:24;;;;;;;15.30;10.00;;;21.60;99.90;;;;;;5013265;28;20018;-58
2023/02/19 10:35:15;;;;;;;15.95;9.73;;;21.60;99.90;;;;;;5030138;28;20023;-58
2023/02/19 10:37:48;;;;;;;13.15;9.77;;;21.60;99.90;;;;;;5027344;28;20363;-58
2023/02/19 10:40:19;;;;;;;14.75;10.32;;;21.70;99.90;;;;;;5013359;28;20041;-58
2023/02/19 10:42:48;;;;;;;13.30;8.68;;;21.70;99.90;;;;;;5026242;28;20068;-58
2023/02/19 10:45:27;;;;;;;13.90;9.85;;;21.70;99.90;;;;;;5023507;28;20036;-57
2023/02/19 10:47:53;;;;;;;17.83;10.68;;;21.70;99.90;;;;;;5016395;28;20022;-57
2023/02/19 10:50:46;;;;;;;14.15;9.05;;;21.70;99.90;;;;;;5032467;28;20392;-57
2023/02/19 10:53:24;;;;;;;14.55;9.10;;;21.70;99.90;;;;;;5026389;28;20022;-57
2023/02/19 10:56:23;;;;;;;18.30;9.65;;;21.80;99.90;;;;;;5014611;28;20080;-57
2023/02/19 10:58:49;;;;;;;16.85;10.05;;;21.80;99.90;;;;;;5014729;28;20037;-56
2023/02/19 11:01:26;;;;;;;14.80;9.55;;;21.80;99.90;;;;;;5032333;28;20056;-57
2023/02/19 11:04:16;;;;;;;19.02;9.65;;;21.80;99.90;;;;;;5020256;28;20116;-58
2023/02/19 11:06:43;;;;;;;13.07;9.32;;;21.80;99.90;;;;;;5032493;28;20134;-59
2023/02/19 11:09:27;;;;;;;14.23;9.70;;;21.80;99.90;;;;;;5019169;28;20026;-57
2023/02/19 11:11:55;;;;;;;15.60;8.93;;;21.80;99.90;;;;;;5032544;28;20026;-57
2023/02/19 11:14:23;;;;;;;14.38;8.88;;;21.90;99.90;;;;;;5016472;28;20024;-56
2023/02/19 11:16:50;;;;;;;15.73;9.18;;;21.90;99.90;;;;;;4995179;28;20113;-57
2023/02/19 11:19:36;;;;;;;;;;;21.90;99.90;;;;;;5028884;28;20042;-57
2023/02/19 11:22:30;;;;;;;17.98;9.15;;;21.90;99.90;;;;;;5003373;28;19992;-57
2023/02/19 11:25:03;;;;;;;13.40;8.35;;;21.90;99.90;;;;;;5020710;28;20375;-58
2023/02/19 11:27:29;;;;;;;13.68;9.00;;;22.00;99.90;;;;;;5014070;28;20018;-58
2023/02/19 11:30:15;;;;;;;12.95;9.13;;;22.00;99.90;;;;;;5025101;28;20030;-59
2023/02/19 11:32:41;;;;;;;16.80;8.80;;;22.00;99.90;;;;;;5028797;28;20033;-58
2023/02/19 11:35:21;;;;;;;15.55;8.90;;;22.00;99.90;;;;;;5023446;28;20029;-58
2023/02/19 11:37:59;;;;;;;11.98;8.57;;;22.00;99.90;;;;;;5029193;28;20483;-58
2023/02/19 11:40:43;;;;;;;15.77;8.85;;;22.00;99.90;;;;;;5032273;28;20034;-56
2023/02/19 11:43:30;;;;;;;16.55;8.20;;;22.00;99.90;;;;;;5031841;28;20107;-57
2023/02/19 11:46:08;;;;;;;;;;;22.10;99.90;;;;;;5017891;28;20112;-58
2023/02/19 11:49:06;;;;;;;13.32;8.02;;;22.10;99.90;;;;;;5031948;28;19905;-58
2023/02/19 11:51:45;;;;;;;12.15;8.45;;;22.10;99.90;;;;;;5015971;28;20503;-59
2023/02/19 11:54:25;;;;;;;19.42;8.68;;;22.10;99.90;;;;;;5023809;28;20030;-58
2023/02/19 11:57:16;;;;;;;12.30;8.18;;;22.10;99.90;;;;;;5013831;28;20025;-57
2023/02/19 12:00:06;;;;;;;14.02;8.18;;;22.10;99.90;;;;;;5010264;28;20104;-59
2023/02/19 12:02:48;;;;;;;18.35;8.00;;;22.10;99.90;;;;;;5022055;28;20424;-58
2023/02/19 12:05:41;;;;;;;20.05;7.30;;;22.10;99.90;;;;;;5031631;28;20022;-58
2023/02/19 12:08:25;;;;;;;16.80;7.75;;;22.10;99.90;;;;;;5013772;28;20116;-58
2023/02/19 12:11:10;;;;;;;20.20;7.43;;;22.20;99.90;;;;;;5031717;28;20040;-58
2023/02/19 12:13:59;;;;;;;17.38;7.63;;;22.20;99.90;;;;;;5031202;28;20068;-58
2023/02/19 12:16:37;;;;;;;18.13;7.40;;;22.30;99.90;;;;;;5031469;28;20104;-59
2023/02/19 12:19:20;;;;;;;19.00;7.05;;;22.30;99.90;;;;;;5022111;28;20053;-59
2023/02/19 12:22:04;;;;;;;17.90;7.70;;;22.30;99.90;;;;;;5012002;28;20033;-58
2023/02/19 12:25:11;;;;;;;27.10;4.90;;;22.30;99.90;;;;;;5007687;28;20026;-59
2023/02/19 12:27:40;;;;;;;20.77;4.55;;;22.30;99.90;;;;;;5031459;28;20459;-59
2023/02/19 12:30:35;;;;;;;19.17;3.92;;;22.30;99.90;;;;;;5014327;28;20456;-60
2023/02/19 12:33:33;;;;;;;9.43;3.33;;;22.20;99.90;;;;;;5005167;28;20399;-57
2023/02/19 12:36:07;;;;;;;15.25;3.53;;;22.20;99.90;;;;;;5001256;28;20481;-57
2023/02/19 12:39:11;;;;;;;13.75;4.25;;;22.20;99.90;;;;;;5012266;28;20041;-57
2023/02/19 12:42:05;;;;;;;31.83;18.30;;;22.20;99.90;;;;;;5015434;28;20030;-56
2023/02/19 12:44:50;;;;;;;62.60;35.03;;;22.20;99.90;;;;;;5018389;28;20392;-58
2023/02/19 12:47:24;;;;;;;48.28;28.83;;;22.30;99.90;;;;;;5035672;28;20036;-56
2023/02/19 12:50:04;;;;;;;42.58;25.17;;;22.30;99.90;;;;;;5035021;28;20440;-55
2023/02/19 12:52:39;;;;;;;40.78;25.42;;;22.30;99.90;;;;;;5023534;28;20079;-55
2023/02/19 12:55:27;;;;;;;37.65;22.27;;;22.40;99.90;;;;;;5035028;28;20048;-55
2023/02/19 12:57:55;;;;;;;36.53;19.20;;;22.40;99.90;;;;;;5017117;28;20071;-55
2023/02/19 13:00:30;;;;;;;31.67;19.42;;;22.50;99.90;;;;;;5032099;28;20519;-57
2023/02/19 13:03:19;;;;;;;31.75;19.35;;;22.50;99.90;;;;;;5031358;28;20032;-55
2023/02/19 13:06:00;;;;;;;28.52;18.67;;;22.50;99.90;;;;;;5015316;28;20424;-58
2023/02/19 13:08:43;;;;;;;30.00;16.88;;;22.50;99.90;;;;;;5020545;28;20018;-57
2023/02/19 13:11:32;;;;;;;31.27;16.65;;;22.50;99.90;;;;;;5034935;28;20526;-58
2023/02/19 13:14:18;;;;;;;27.20;15.88;;;22.60;99.90;;;;;;5015215;28;20045;-58
2023/02/19 13:16:50;;;;;;;31.97;14.30;;;22.60;99.90;;;;;;5033578;28;20033;-58
2023/02/19 13:19:15;;;;;;;21.63;12.45;;;22.60;99.90;;;;;;5034275;28;20029;-56
2023/02/19 13:24:32;;;;;;;22.70;12.45;;;22.60;99.90;;;;;;5014325;28;20025;-59